AirNav   Pilot Hours Calculator
 
 989 users online  

IS99 Ware-Wolf Lake Heliport
Wolf Lake, Illinois, USA

GOING TO WOLF LAKE?


FAA INFORMATION EFFECTIVE 10 OCTOBER 2019

Location

FAA Identifier: IS99
Lat/Long: 37-30-27.0000N 089-26-20.0000W
37-30.450000N 089-26.333333W
37.5075000,-89.4388889
(estimated)
Elevation: 350 ft. / 107 m (estimated)
Variation: 00E (1995)
Time zone: UTC -5 (UTC -6 during Standard Time)
Zip code: 62998

Heliport Operations

Heliport use: Private use. Permission required prior to landing
Activation date: 10/1998
Control tower: no
ARTCC: MEMPHIS CENTER
FSS: COLUMBIA FLIGHT SERVICE STATION
Attendance: UNATNDD
Segmented circle: no
Lights: FOR PERIMETER AND FLOOD LGTS CALL 618-697-8846.

Heliport Communications

WX ASOS at CGI (18 nm S): 120.55 (573-335-3811)
WX ASOS at MDH (19 nm NE): PHONE 618-529-1821

Nearby radio navigation aids

VOR radial/distance  VOR name  Freq  Var
CGIr023/18.0CAPE GIRARDEAU VOR/DME112.9002W
MWAr230/25.1MARION VOR/DME110.4004E
FAMr104/39.1FARMINGTON VORTAC115.7001E

 
NDB name  Hdg/Dist  Freq  Var  ID
CAIRO339/28.739700ECIR -.-. .. .-.

Heliport Services

Runway Information

Helipad H1

Dimensions: 40 x 40 ft. / 12 x 12 m
Surface: concrete, in good condition
Runway edge lights: PERI
AND FLOOD LGTS.
Latitude: 37-30.450000N
Longitude: 089-26.333333W
Elevation: 350.0 ft.
Traffic pattern: leftleft

Heliport Ownership and Management from official FAA records

Ownership: Privately-owned
Owner: WARE-WOLF LAKE FIRE DEPT
PO BOX 134
WOLF LAKE, IL 62998
Manager: LARRY DEROSSETT
PO BOX 134
WOLF LAKE, IL 62998
Phone (618) 697-8846

Additional Remarks

FOR CD CTC MEMPHIS ARTCC AT 901-368-8453.

Instrument Procedures

There are no published instrument procedures at IS99.

Some nearby airports with instrument procedures:

KCGI - Cape Girardeau Regional Airport (18 nm S)
KMDH - Southern Illinois Airport (19 nm NE)
KMWA - Veterans Airport of Southern Illinois (25 nm NE)
KPJY - Pinckneyville-Du Quoin Airport (28 nm N)
KCIR - Cairo Regional Airport (29 nm S)
 
Loc | Ops | Rwys | IFR | FBO | Links
Com | Nav | Svcs | Stats | Notes
Area around IS99 (Ware-Wolf Lake Heliport)
 
Road maps at: MapQuest Bing Google
 
Aerial photo
No photo
 
Sectional chart

 
Airport distance calculator
Flying to Ware-Wolf Lake Heliport? Find the distance to fly.

From to IS99

Sunrise and sunset
Times for 20-Oct-2019
 Local
(UTC-5)
 Zulu
(UTC)
Morning civil twilight06:4511:45
Sunrise07:1212:12
Sunset18:1323:13
Evening civil twilight18:4023:40

Current date and time
Zulu (UTC)  20-Oct-2019 15:52:09
Local (UTC-5)  20-Oct-2019 10:52:09
 
METAR
KCGI 
18nm SW 
201512Z VRB05KT 9SM OVC010 16/12 A2994 RMK AO2 CIG 009V014 T01560117
KMDH 
19nm NE 
201452Z 00000KT 9SM OVC012 15/12 A2993 RMK AO2 SLP134 T01500117 53012
KMWA 
25nm NE 
201449Z 34007KT 7SM OVC009 14/12 A2993
KCIR 
29nm S 
201535Z AUTO 00000KT 10SM OVC008 14/12 A2994 RMK AO2 T01410121
KPCD 
30nm NW 
201535Z AUTO 12004KT 10SM OVC016 15/11 A2993 RMK AO2 T01470112
TAF
KCGI 
18nm SW 
201120Z 2012/2112 01003KT P6SM BKN008 FM201500 VRB03KT P6SM BKN010 FM202000 14005KT P6SM FEW030 SCT120 FM210800 15010G18KT P6SM BKN025 FM210900 15010G18KT P6SM OVC010 FM211000 17012G20KT 4SM TSRA BR OVC010CB
NOTAMs
Click for the latest NOTAMs
NOTAMs are issued by the DoD/FAA and will open in a separate window not controlled by AirNav.

 

 
 

Would you like to see your business listed on this page?

 If your business provides an interesting product or service to pilots, flight crews, aircraft, or users of the Ware-Wolf Lake Heliport, you should consider listing it here.  To start the listing process, click on the button below
 
Add a business
 

Other Pages about Ware-Wolf Lake Heliport

Update a link
 
Copyright © AirNav, LLC. All rights reserved. Privacy Policy  Contact